Time;durP1;ratioP1;P1;durP2;ratioP2;P2;SDS_P1;SDS_P2;PMS_P1;PMS_P2;Temp;Humidity;BMP_temperature;BMP_pressure;BME280_temperature;BME280_humidity;BME280_pressure;Samples;Min_cycle;Max_cycle;Signal;HPM_P1;HPM_P2
2023/08/27 00:00:34;;;;;;;8.38;6.10;;;;;;;19.20;100.00;-18543.44;5000414;28;20061;-77
2023/08/27 00:02:59;;;;;;;8.15;6.38;;;;;;;19.32;100.00;-18546.72;5009547;28;20041;-76
2023/08/27 00:05:25;;;;;;;7.30;5.45;;;;;;;19.32;100.00;-18546.72;4989612;28;20054;-78
2023/08/27 00:07:50;;;;;;;6.68;5.72;;;;;;;19.38;100.00;-18548.34;4992717;28;20378;-77
2023/08/27 00:10:16;;;;;;;7.65;5.90;;;;;;;19.61;100.00;-18554.47;5004500;28;20034;-77
2023/08/27 00:12:41;;;;;;;7.47;6.07;;;;;;;19.46;100.00;-18550.38;5001568;28;20042;-78
2023/08/27 00:15:07;;;;;;;7.50;6.05;;;;;;;19.61;100.00;-18554.47;5005485;28;20460;-78
2023/08/27 00:17:32;;;;;;;8.73;5.93;;;;;;;19.61;100.00;-18554.47;4991532;28;20041;-77
2023/08/27 00:19:58;;;;;;;7.57;6.32;;;;;;;19.74;100.00;-18558.00;4984042;28;20041;-77
2023/08/27 00:22:23;;;;;;;7.55;5.78;;;;;;;19.55;100.00;-18552.84;5000325;28;20042;-78
2023/08/27 00:24:49;;;;;;;9.02;6.05;;;;;;;19.49;100.00;-18551.19;4995005;28;20068;-77
2023/08/27 00:27:14;;;;;;;8.02;6.07;;;;;;;19.46;100.00;-18550.53;4999568;28;20112;-77
2023/08/27 00:29:40;;;;;;;8.50;6.00;;;;;;;19.61;100.00;-18554.59;5000048;28;20156;-78
2023/08/27 00:32:06;;;;;;;9.10;6.55;;;;;;;19.71;100.00;-18557.06;4999257;28;20117;-77
2023/08/27 00:34:35;;;;;;;8.55;6.47;;;;;;;19.64;100.00;-18555.28;4995915;28;20074;-77
2023/08/27 00:37:01;;;;;;;8.30;6.55;;;;;;;19.37;100.00;-18548.06;5004945;28;20069;-77
2023/08/27 00:39:29;;;;;;;8.63;6.28;;;;;;;19.07;100.00;-18540.16;5005408;28;20046;-78
2023/08/27 00:41:54;;;;;;;8.25;6.22;;;;;;;19.00;100.00;-18538.25;4999303;28;20065;-78
2023/08/27 00:44:20;;;;;;;9.13;6.57;;;;;;;19.04;100.00;-18539.34;4999604;28;20115;-77
2023/08/27 00:46:47;;;;;;;10.00;6.57;;;;;;;18.97;100.00;-18537.44;4999965;28;20049;-77
2023/08/27 00:49:12;;;;;;;7.75;6.40;;;;;;;18.98;100.00;-18537.56;4993497;28;20037;-78
2023/08/27 00:51:38;;;;;;;8.98;6.25;;;;;;;19.02;100.00;-18538.81;5002609;28;20501;-78
2023/08/27 00:54:07;;;;;;;7.13;6.00;;;;;;;18.84;100.00;-18533.91;4979524;28;20069;-77
2023/08/27 00:56:33;;;;;;;6.63;5.57;;;;;;;19.04;100.00;-18539.22;4996336;28;20046;-78
2023/08/27 00:59:00;;;;;;;8.38;5.65;;;;;;;18.91;100.00;-18535.81;5002801;28;20518;-77
2023/08/27 01:01:27;;;;;;;8.25;5.53;;;;;;;18.52;100.00;-18525.44;5000319;28;20041;-77
2023/08/27 01:03:53;;;;;;;8.05;5.90;;;;;;;18.34;100.00;-18520.66;4978994;28;20125;-76
2023/08/27 01:06:18;;;;;;;6.07;5.20;;;;;;;18.53;100.00;-18525.56;4998805;28;20121;-77
2023/08/27 01:09:04;;;;;;;8.02;6.10;;;;;;;18.47;100.00;-18524.06;4985984;28;20050;-78
2023/08/27 01:11:40;;;;;;;6.75;5.45;;;;;;;18.48;100.00;-18524.34;5004049;28;20448;-77
2023/08/27 01:14:09;;;;;;;7.18;5.18;;;;;;;18.40;100.00;-18522.16;4981904;28;20080;-77
2023/08/27 01:16:35;;;;;;;8.23;5.75;;;;;;;18.38;100.00;-18521.75;5000077;28;20046;-77
2023/08/27 01:19:01;;;;;;;6.25;5.57;;;;;;;18.36;100.00;-18521.06;4998890;28;24180;-77
2023/08/27 01:21:27;;;;;;;6.90;5.50;;;;;;;18.59;100.00;-18527.34;4997959;28;20048;-77
2023/08/27 01:23:53;;;;;;;7.25;5.50;;;;;;;18.30;100.00;-18519.44;4987810;28;20045;-77
2023/08/27 01:26:24;;;;;;;7.30;5.72;;;;;;;18.61;100.00;-18527.88;5004554;28;20170;-77
2023/08/27 01:28:57;;;;;;;7.63;5.45;;;;;;;18.50;100.00;-18524.91;4998167;28;20489;-78
2023/08/27 01:31:27;;;;;;;7.22;5.20;;;;;;;18.62;100.00;-18528.16;4985665;28;20662;-77
2023/08/27 01:33:56;;;;;;;7.57;5.00;;;;;;;18.63;100.00;-18528.31;4999022;28;20561;-77
2023/08/27 01:36:22;;;;;;;6.38;5.18;;;;;;;18.60;100.00;-18527.63;5001539;28;20575;-78
2023/08/27 01:38:48;;;;;;;6.43;4.55;;;;;;;18.54;100.00;-18525.97;5002969;28;20041;-78
2023/08/27 01:41:14;;;;;;;6.95;5.25;;;;;;;18.53;100.00;-18525.56;5005612;28;20053;-78
2023/08/27 01:43:39;;;;;;;6.40;5.20;;;;;;;18.53;100.00;-18525.72;5000892;28;20668;-78
2023/08/27 01:46:04;;;;;;;7.53;5.10;;;;;;;18.56;100.00;-18526.53;4990415;28;20123;-77
2023/08/27 01:48:30;;;;;;;5.93;5.00;;;;;;;18.54;100.00;-18525.84;5001196;28;20049;-78
2023/08/27 01:50:55;;;;;;;6.15;4.63;;;;;;;17.96;100.00;-18510.56;4982932;28;20054;-78
2023/08/27 01:53:21;;;;;;;6.28;5.32;;;;;;;17.74;100.00;-18504.56;5006304;28;20533;-78
2023/08/27 01:55:46;;;;;;;6.50;5.47;;;;;;;17.69;100.00;-18503.19;5005384;28;20069;-77
2023/08/27 01:58:11;;;;;;;7.80;5.35;;;;;;;17.69;100.00;-18503.34;5004513;28;20674;-77
2023/08/27 02:00:37;;;;;;;7.95;5.53;;;;;;;17.82;100.00;-18506.75;5001985;28;20634;-77
2023/08/27 02:03:03;;;;;;;6.13;5.30;;;;;;;17.77;100.00;-18505.53;4997317;28;20073;-77
2023/08/27 02:05:28;;;;;;;6.05;5.03;;;;;;;17.80;100.00;-18506.22;5001834;28;20085;-77
2023/08/27 02:07:54;;;;;;;6.45;5.35;;;;;;;17.54;100.00;-18499.25;5006543;28;20088;-78
2023/08/27 02:10:19;;;;;;;7.35;5.68;;;;;;;17.78;100.00;-18505.81;5009164;28;20085;-77
2023/08/27 02:12:44;;;;;;;9.93;5.60;;;;;;;17.72;100.00;-18504.16;5002473;28;20058;-78
2023/08/27 02:15:10;;;;;;;7.60;5.90;;;;;;;17.62;100.00;-18501.44;4997617;28;20069;-77
2023/08/27 02:17:36;;;;;;;9.15;6.72;;;;;;;17.65;100.00;-18502.09;5002237;28;20070;-77
2023/08/27 02:20:06;;;;;;;8.18;6.20;;;;;;;17.74;100.00;-18504.69;5002452;28;20049;-76
2023/08/27 02:22:32;;;;;;;8.10;6.13;;;;;;;17.47;100.00;-18497.34;4986411;28;20092;-77
2023/08/27 02:24:57;;;;;;;9.35;6.68;;;;;;;17.34;100.00;-18494.06;5004464;28;20039;-78
2023/08/27 02:27:22;;;;;;;9.13;7.63;;;;;;;17.50;100.00;-18498.28;4986291;28;20057;-78
2023/08/27 02:29:48;;;;;;;10.10;6.90;;;;;;;17.58;100.00;-18500.34;4984678;28;20046;-77
2023/08/27 02:32:13;;;;;;;7.97;6.95;;;;;;;17.58;100.00;-18500.34;4993299;28;20042;-78
2023/08/27 02:34:38;;;;;;;11.80;7.80;;;;;;;17.63;100.00;-18501.69;5001779;28;20112;-77
2023/08/27 02:37:04;;;;;;;11.23;7.90;;;;;;;17.69;100.00;-18503.34;5001165;28;20064;-77
2023/08/27 02:39:29;;;;;;;10.80;7.88;;;;;;;17.84;100.00;-18507.16;5002909;28;20046;-77
2023/08/27 02:41:54;;;;;;;12.15;8.10;;;;;;;17.88;100.00;-18508.25;5006549;28;20140;-76
2023/08/27 02:44:20;;;;;;;10.63;8.18;;;;;;;17.86;100.00;-18507.72;4997227;28;20051;-77
2023/08/27 02:46:45;;;;;;;11.93;8.40;;;;;;;17.99;100.00;-18511.25;4997215;28;20045;-77
2023/08/27 02:49:10;;;;;;;10.73;8.23;;;;;;;18.04;100.00;-18512.63;4994532;28;20037;-77
2023/08/27 02:51:36;;;;;;;10.73;8.35;;;;;;;17.95;100.00;-18510.16;4998954;28;20038;-78
2023/08/27 02:54:01;;;;;;;9.63;8.00;;;;;;;18.09;100.00;-18513.97;5002860;28;20492;-78
2023/08/27 02:56:26;;;;;;;10.18;8.13;;;;;;;18.04;100.00;-18512.75;5005984;28;20065;-76
2023/08/27 02:58:52;;;;;;;11.70;7.90;;;;;;;18.11;100.00;-18514.53;4999885;28;20120;-77
2023/08/27 03:01:20;;;;;;;10.32;8.50;;;;;;;18.23;100.00;-18517.66;5005617;28;20085;-77
2023/08/27 03:03:50;;;;;;;10.63;8.63;;;;;;;18.22;100.00;-18517.53;5003358;28;20044;-78
2023/08/27 03:06:15;;;;;;;10.20;7.90;;;;;;;18.22;100.00;-18517.53;5001351;28;20042;-76
2023/08/27 03:08:41;;;;;;;10.98;8.20;;;;;;;18.37;100.00;-18521.34;5002213;28;20644;-77
2023/08/27 03:11:06;;;;;;;14.23;9.05;;;;;;;18.49;100.00;-18524.75;5004385;28;20516;-76
2023/08/27 03:13:32;;;;;;;12.98;8.95;;;;;;;18.41;100.00;-18522.44;5003147;28;20127;-77
2023/08/27 03:15:57;;;;;;;11.23;8.20;;;;;;;18.22;100.00;-18517.41;4998526;28;20049;-76
2023/08/27 03:18:24;;;;;;;8.90;7.95;;;;;;;18.15;100.00;-18515.63;5002371;28;20046;-77
2023/08/27 03:20:50;;;;;;;11.05;7.78;;;;;;;18.11;100.00;-18514.41;5005802;28;20121;-77
2023/08/27 03:23:15;;;;;;;10.45;7.60;;;;;;;18.15;100.00;-18515.63;5000890;28;20129;-77
2023/08/27 03:25:40;;;;;;;12.85;8.63;;;;;;;18.12;100.00;-18514.81;4998809;28;20076;-77
2023/08/27 03:28:06;;;;;;;9.65;7.82;;;;;;;18.19;100.00;-18516.72;5002761;28;20123;-77
2023/08/27 03:30:31;;;;;;;11.95;8.70;;;;;;;18.15;100.00;-18515.47;4999044;28;20045;-77
2023/08/27 03:32:56;;;;;;;10.13;7.32;;;;;;;18.33;100.00;-18520.25;5001522;28;20039;-77
2023/08/27 03:35:22;;;;;;;10.93;8.25;;;;;;;18.30;100.00;-18519.44;5000359;28;20038;-78
2023/08/27 03:37:47;;;;;;;9.95;8.15;;;;;;;18.21;100.00;-18517.25;4999528;28;20050;-77
2023/08/27 03:40:12;;;;;;;9.68;7.95;;;;;;;18.27;100.00;-18518.91;4999155;28;20046;-77
2023/08/27 03:42:38;;;;;;;9.27;7.50;;;;;;;18.16;100.00;-18515.75;4989099;28;20056;-78
2023/08/27 03:45:04;;;;;;;10.85;7.95;;;;;;;18.11;100.00;-18514.53;5000836;28;20063;-77
2023/08/27 03:47:29;;;;;;;9.95;7.80;;;;;;;18.05;100.00;-18512.91;5003452;28;20050;-78
2023/08/27 03:49:54;;;;;;;10.50;8.32;;;;;;;18.06;100.00;-18513.03;5002546;28;20512;-78
2023/08/27 03:52:20;;;;;;;9.20;7.43;;;;;;;18.18;100.00;-18516.44;5001930;28;20068;-78
2023/08/27 03:54:45;;;;;;;10.80;8.75;;;;;;;18.24;100.00;-18518.06;4987996;28;20046;-78
2023/08/27 03:57:10;;;;;;;10.77;8.50;;;;;;;18.19;100.00;-18516.56;4987360;28;20042;-76
2023/08/27 03:59:36;;;;;;;10.88;8.88;;;;;;;18.15;100.00;-18515.63;5004504;28;20152;-77
2023/08/27 04:02:01;;;;;;;11.13;9.48;;;;;;;18.40;100.00;-18522.16;5005918;28;20064;-77
2023/08/27 04:04:27;;;;;;;12.23;9.23;;;;;;;18.41;100.00;-18522.56;5003847;28;20509;-77
2023/08/27 04:06:54;;;;;;;11.50;9.10;;;;;;;18.50;100.00;-18524.91;5002009;28;20166;-78
2023/08/27 04:09:20;;;;;;;10.63;9.02;;;;;;;18.57;100.00;-18526.81;4997489;28;20045;-77
2023/08/27 04:11:46;;;;;;;12.60;9.38;;;;;;;18.59;100.00;-18527.34;5001756;28;20037;-78
2023/08/27 04:14:11;;;;;;;12.93;8.90;;;;;;;18.67;100.00;-18529.53;5000112;28;20730;-78
2023/08/27 04:16:37;;;;;;;11.30;9.18;;;;;;;19.08;100.00;-18540.44;4999568;28;20038;-78
2023/08/27 04:19:02;;;;;;;11.18;9.10;;;;;;;18.24;100.00;-18518.06;5003062;28;20704;-77
2023/08/27 04:21:29;;;;;;;13.60;9.93;;;;;;;17.87;100.00;-18507.97;5002210;28;20092;-78
2023/08/27 04:23:55;;;;;;;14.70;10.10;;;;;;;17.64;100.00;-18501.97;4982426;28;20265;-77
2023/08/27 04:26:21;;;;;;;12.20;10.32;;;;;;;17.80;100.00;-18506.22;4998444;28;20386;-77
2023/08/27 04:28:47;;;;;;;15.20;10.73;;;;;;;17.77;100.00;-18505.53;5000532;28;20041;-77
2023/08/27 04:31:12;;;;;;;14.70;10.02;;;;;;;17.70;100.00;-18503.63;4984159;28;20050;-77
2023/08/27 04:33:37;;;;;;;14.13;10.52;;;;;;;17.79;100.00;-18506.06;4986163;28;20041;-78
2023/08/27 04:36:03;;;;;;;13.38;10.63;;;;;;;17.98;100.00;-18510.97;5002472;28;20872;-77
2023/08/27 04:38:29;;;;;;;13.48;11.32;;;;;;;17.94;100.00;-18510.03;4999676;28;20425;-77
2023/08/27 04:40:54;;;;;;;15.30;11.00;;;;;;;17.94;100.00;-18510.03;4998620;28;20047;-76
2023/08/27 04:43:20;;;;;;;15.55;11.55;;;;;;;18.03;100.00;-18512.47;5004700;28;20485;-77
2023/08/27 04:45:45;;;;;;;16.80;11.95;;;;;;;18.04;100.00;-18512.63;4998426;28;20061;-76
2023/08/27 04:48:10;;;;;;;16.52;12.07;;;;;;;18.18;100.00;-18516.31;5000886;28;20129;-77
2023/08/27 04:50:37;;;;;;;13.70;10.95;;;;;;;18.22;100.00;-18517.53;5005826;28;20457;-77
2023/08/27 04:53:02;;;;;;;17.20;12.43;;;;;;;18.26;100.00;-18518.47;5003719;28;20046;-77
2023/08/27 04:55:28;;;;;;;16.33;13.48;;;;;;;18.27;100.00;-18518.91;5002214;28;20149;-77
2023/08/27 04:57:53;;;;;;;15.10;10.98;;;;;;;18.39;100.00;-18521.91;4988273;28;20049;-76
2023/08/27 05:00:22;;;;;;;16.30;12.02;;;;;;;18.44;100.00;-18523.41;4997363;28;20042;-77
2023/08/27 05:02:48;;;;;;;16.88;10.57;;;;;;;18.57;100.00;-18526.66;5002068;28;20045;-77
2023/08/27 05:05:13;;;;;;;15.45;11.20;;;;;;;18.65;100.00;-18528.84;5002664;28;20126;-78
2023/08/27 05:07:39;;;;;;;16.52;9.88;;;;;;;18.40;100.00;-18522.16;5002661;28;20117;-77
2023/08/27 05:10:04;;;;;;;14.68;10.52;;;;;;;18.27;100.00;-18518.75;4999421;28;20042;-76
2023/08/27 05:12:30;;;;;;;12.13;9.20;;;;;;;18.18;100.00;-18516.44;5000921;28;20046;-76
2023/08/27 05:14:55;;;;;;;13.18;9.32;;;;;;;18.44;100.00;-18523.25;5001746;28;20065;-76
2023/08/27 05:17:21;;;;;;;14.70;9.10;;;;;;;18.42;100.00;-18522.84;5002911;28;20363;-78
2023/08/27 05:19:46;;;;;;;10.48;8.48;;;;;;;18.38;100.00;-18521.75;5002219;28;20697;-78
2023/08/27 05:22:12;;;;;;;11.40;8.00;;;;;;;18.37;100.00;-18521.47;4998218;28;20065;-77
2023/08/27 05:24:37;;;;;;;10.98;7.70;;;;;;;18.36;100.00;-18521.06;5001230;28;20037;-77
2023/08/27 05:27:03;;;;;;;11.68;7.03;;;;;;;18.16;100.00;-18515.75;5004295;28;20042;-76
2023/08/27 05:29:29;;;;;;;9.52;7.30;;;;;;;18.30;100.00;-18519.44;5004682;28;20050;-78
2023/08/27 05:31:54;;;;;;;9.40;6.50;;;;;;;18.52;100.00;-18525.31;4995683;28;20058;-77
2023/08/27 05:34:20;;;;;;;10.27;7.30;;;;;;;18.55;100.00;-18526.25;4985973;28;20042;-77
2023/08/27 05:36:45;;;;;;;12.50;7.07;;;;;;;18.69;100.00;-18530.06;4999365;28;20117;-77
2023/08/27 05:39:11;;;;;;;9.70;6.32;;;;;;;18.60;100.00;-18527.47;5002826;28;20040;-77
2023/08/27 05:41:36;;;;;;;8.57;5.70;;;;;;;18.68;100.00;-18529.66;5001083;28;20077;-77
2023/08/27 05:44:02;;;;;;;11.10;5.60;;;;;;;18.61;100.00;-18527.75;5000522;28;20880;-78
2023/08/27 05:46:27;;;;;;;10.65;6.20;;;;;;;18.38;100.00;-18521.75;5003389;28;20046;-77
2023/08/27 05:48:53;;;;;;;8.23;5.65;;;;;;;18.30;100.00;-18519.56;5004308;28;20084;-78
2023/08/27 05:51:18;;;;;;;8.60;5.80;;;;;;;18.44;100.00;-18523.25;5006000;28;20038;-77
2023/08/27 05:53:43;;;;;;;7.15;5.20;;;;;;;18.41;100.00;-18522.44;5004566;28;20122;-77
2023/08/27 05:56:09;;;;;;;7.68;5.07;;;;;;;18.31;100.00;-18519.84;4991110;28;20065;-77
2023/08/27 05:58:34;;;;;;;9.07;4.88;;;;;;;18.22;100.00;-18517.53;5012293;28;20847;-76
2023/08/27 06:01:02;;;;;;;7.55;4.70;;;;;;;18.05;100.00;-18512.91;5005460;28;20084;-76
2023/08/27 06:03:27;;;;;;;10.32;6.00;;;;;;;18.10;100.00;-18514.25;5005748;28;20458;-77
2023/08/27 06:05:53;;;;;;;8.00;6.07;;;;;;;18.18;100.00;-18516.44;5009462;28;20124;-76
2023/08/27 06:08:18;;;;;;;8.43;5.18;;;;;;;18.25;100.00;-18518.34;5011143;28;20076;-76
2023/08/27 06:10:44;;;;;;;8.10;4.70;;;;;;;18.17;100.00;-18516.03;5007876;28;20096;-77
2023/08/27 06:13:10;;;;;;;9.30;5.45;;;;;;;18.09;100.00;-18513.97;5006121;28;20374;-78
2023/08/27 06:15:37;;;;;;;5.95;4.55;;;;;;;18.21;100.00;-18517.13;5009414;28;20108;-77
2023/08/27 06:18:04;;;;;;;5.63;4.40;;;;;;;18.04;100.00;-18512.75;5008128;28;20137;-78
2023/08/27 06:20:30;;;;;;;7.38;4.28;;;;;;;18.06;100.00;-18513.03;5009567;28;20070;-77
2023/08/27 06:22:55;;;;;;;7.97;4.30;;;;;;;17.91;100.00;-18509.06;4989259;28;20050;-78
2023/08/27 06:25:23;;;;;;;7.45;4.50;;;;;;;17.84;100.00;-18507.16;5005496;28;20706;-77
2023/08/27 06:27:53;;;;;;;6.47;4.10;;;;;;;17.92;100.00;-18509.47;5008449;28;20052;-78
2023/08/27 06:30:18;;;;;;;6.70;4.47;;;;;;;17.99;100.00;-18511.25;5005120;28;20637;-78
2023/08/27 06:32:44;;;;;;;8.40;4.50;;;;;;;18.06;100.00;-18513.03;5019097;22;20038;-79
2023/08/27 06:35:09;;;;;;;8.68;5.50;;;;;;;17.97;100.00;-18510.72;4993919;28;20537;-79
2023/08/27 06:37:35;;;;;;;6.28;4.88;;;;;;;18.12;100.00;-18514.81;5011687;28;20052;-79
2023/08/27 06:40:00;;;;;;;10.30;5.20;;;;;;;17.98;100.00;-18511.13;5010932;28;20526;-78
2023/08/27 06:42:25;;;;;;;6.22;5.10;;;;;;;17.69;100.00;-18503.34;5010418;28;20042;-78
2023/08/27 06:44:51;;;;;;;7.80;6.00;;;;;;;17.71;100.00;-18503.88;5011191;28;20522;-78
2023/08/27 06:47:17;;;;;;;8.73;5.50;;;;;;;17.88;100.00;-18508.25;5009838;28;20042;-78
2023/08/27 06:49:42;;;;;;;8.85;6.43;;;;;;;17.76;100.00;-18505.13;5010225;28;20038;-78
2023/08/27 06:52:09;;;;;;;8.82;5.70;;;;;;;17.87;100.00;-18507.97;5007503;28;20038;-78
2023/08/27 06:54:34;;;;;;;7.75;5.63;;;;;;;17.82;100.00;-18506.75;5013813;28;20052;-79
2023/08/27 06:57:00;;;;;;;9.18;5.38;;;;;;;17.90;100.00;-18508.81;5008429;28;20042;-78
2023/08/27 06:59:25;;;;;;;7.75;6.32;;;;;;;18.02;100.00;-18512.06;5004060;28;20029;-78
2023/08/27 07:01:50;;;;;;;8.50;6.03;;;;;;;18.12;100.00;-18514.81;4991874;28;20034;-78
2023/08/27 07:04:16;;;;;;;6.95;5.05;;;;;;;18.18;100.00;-18516.44;5009301;28;20076;-78
2023/08/27 07:06:41;;;;;;;10.80;6.45;;;;;;;18.52;100.00;-18525.44;4992205;28;20038;-78
2023/08/27 07:09:06;;;;;;;8.25;6.07;;;;;;;18.42;100.00;-18522.84;5009088;28;20066;-78
2023/08/27 07:11:33;;;;;;;10.15;5.97;;;;;;;18.45;100.00;-18523.53;5009019;28;20085;-79
2023/08/27 07:13:59;;;;;;;9.65;6.00;;;;;;;18.52;100.00;-18525.44;5010684;28;20049;-78
2023/08/27 07:16:26;;;;;;;8.25;6.05;;;;;;;18.48;100.00;-18524.34;5009859;28;20037;-78
2023/08/27 07:18:52;;;;;;;12.38;7.22;;;;;;;18.56;100.00;-18526.53;5007938;28;20428;-79
2023/08/27 07:21:17;;;;;;;8.27;5.47;;;;;;;18.63;100.00;-18528.44;5010681;28;20044;-79
2023/08/27 07:23:43;;;;;;;7.05;5.38;;;;;;;18.42;100.00;-18522.72;5010246;28;20119;-79
2023/08/27 07:26:08;;;;;;;8.25;5.55;;;;;;;18.29;100.00;-18519.31;5011560;28;20080;-79
2023/08/27 07:28:34;;;;;;;6.97;4.70;;;;;;;18.42;100.00;-18522.84;5009973;28;20041;-78
2023/08/27 07:30:59;;;;;;;5.75;4.22;;;;;;;18.54;100.00;-18525.84;5009484;28;20548;-79
2023/08/27 07:33:26;;;;;;;5.95;4.25;;;;;;;18.70;100.00;-18530.22;5011028;28;20067;-78
2023/08/27 07:35:51;;;;;;;4.93;2.72;;;;;;;18.52;100.00;-18525.31;4995042;28;20425;-79
2023/08/27 07:38:17;;;;;;;7.57;4.63;;;;;;;18.84;100.00;-18533.91;5011862;28;20030;-78
2023/08/27 07:40:42;;;;;;;4.38;3.35;;;;;;;18.83;100.00;-18533.63;5012116;28;20045;-79
2023/08/27 07:43:08;;;;;;;5.15;3.72;;;;;;;18.77;100.00;-18532.13;5006469;28;20044;-78
2023/08/27 07:45:33;;;;;;;5.32;3.30;;;;;;;18.74;100.00;-18531.16;5010779;28;20041;-79
2023/08/27 07:47:59;;;;;;;7.20;3.97;;;;;;;18.88;100.00;-18535.00;4996345;28;20050;-79
2023/08/27 07:50:25;;;;;;;6.05;3.70;;;;;;;18.89;100.00;-18535.41;4993935;28;20042;-78
2023/08/27 07:52:51;;;;;;;5.78;4.32;;;;;;;19.15;100.00;-18542.22;5010172;28;20116;-79
2023/08/27 07:55:17;;;;;;;3.88;3.20;;;;;;;19.22;100.00;-18543.97;5009654;28;20476;-79
2023/08/27 07:57:42;;;;;;;5.90;3.15;;;;;;;19.25;100.00;-18544.78;5011046;28;20048;-79
2023/08/27 08:00:08;;;;;;;5.20;2.90;;;;;;;19.25;100.00;-18544.94;4991706;28;20366;-79
2023/08/27 08:02:33;;;;;;;5.00;3.22;;;;;;;19.32;100.00;-18546.72;5008139;28;20068;-79
2023/08/27 08:04:59;;;;;;;5.70;3.53;;;;;;;19.47;100.00;-18550.78;5008621;28;20038;-79
2023/08/27 08:07:25;;;;;;;5.28;2.92;;;;;;;19.57;100.00;-18553.50;5009960;28;20030;-79
2023/08/27 08:09:51;;;;;;;4.65;2.72;;;;;;;19.52;100.00;-18552.16;5009931;28;20056;-79
2023/08/27 08:12:17;;;;;;;4.88;2.63;;;;;;;19.49;100.00;-18551.19;5009593;28;20100;-79
2023/08/27 08:14:43;;;;;;;6.32;3.40;;;;;;;19.76;100.00;-18558.41;5010479;28;20117;-79
2023/08/27 08:17:09;;;;;;;4.57;2.88;;;;;;;19.85;100.00;-18560.88;5001710;28;20123;-79
2023/08/27 08:19:34;;;;;;;3.60;2.47;;;;;;;19.99;100.00;-18564.69;5010426;28;20520;-79
2023/08/27 08:22:00;;;;;;;4.38;2.55;;;;;;;19.86;100.00;-18561.00;5009937;28;20042;-78
2023/08/27 08:24:25;;;;;;;4.55;2.60;;;;;;;20.03;100.00;-18565.63;5006969;28;20041;-78
2023/08/27 08:26:52;;;;;;;5.85;2.65;;;;;;;20.17;100.00;-18569.31;5007157;28;20030;-78
2023/08/27 08:29:20;;;;;;;4.38;2.28;;;;;;;20.02;100.00;-18565.38;5006036;28;20124;-78
2023/08/27 08:31:46;;;;;;;4.68;2.65;;;;;;;19.78;100.00;-18558.97;4988320;28;20029;-79
2023/08/27 08:34:11;;;;;;;2.75;1.95;;;;;;;19.72;100.00;-18557.34;5008411;28;20133;-81
2023/08/27 08:36:37;;;;;;;3.67;1.73;;;;;;;19.88;100.00;-18561.69;4990171;28;20404;-79
2023/08/27 08:39:02;;;;;;;4.82;2.05;;;;;;;19.86;100.00;-18561.16;5008489;28;20097;-78
2023/08/27 08:41:28;;;;;;;3.47;1.95;;;;;;;19.96;100.00;-18563.72;5006312;28;20129;-79
2023/08/27 08:44:30;;;;;;;5.03;2.30;;;;;;;20.18;100.00;-18569.72;5008361;28;20042;-79
2023/08/27 08:46:56;;;;;;;4.75;2.58;;;;;;;20.14;100.00;-18568.63;4970742;28;20727;-79
2023/08/27 08:49:22;;;;;;;4.55;2.65;;;;;;;20.17;100.00;-18569.31;5003815;28;20034;-78
2023/08/27 08:51:54;;;;;;;5.75;2.17;;;;;;;20.30;100.00;-18572.84;5007696;28;20034;-78
2023/08/27 08:54:23;;;;;;;3.53;2.10;;;;;;;20.41;100.00;-18575.84;5003443;28;20045;-78
2023/08/27 08:56:54;;;;;;;4.10;2.10;;;;;;;20.41;100.00;-18575.72;5008812;28;20493;-78
2023/08/27 08:59:22;;;;;;;4.78;2.00;;;;;;;20.48;100.00;-18577.75;5002615;28;20033;-79
2023/08/27 09:01:48;;;;;;;3.85;1.90;;;;;;;20.43;100.00;-18576.25;5006119;28;20029;-79
2023/08/27 09:04:14;;;;;;;3.78;1.95;;;;;;;20.52;100.00;-18578.72;4987843;28;20041;-79
2023/08/27 09:06:41;;;;;;;5.03;2.08;;;;;;;20.50;100.00;-18578.16;5008311;28;20041;-79
2023/08/27 09:09:08;;;;;;;5.55;2.30;;;;;;;20.37;100.00;-18574.75;5009036;28;20038;-79
2023/08/27 09:11:36;;;;;;;4.13;2.65;;;;;;;20.08;100.00;-18567.00;5008460;28;20377;-79
2023/08/27 09:14:04;;;;;;;7.27;2.77;;;;;;;20.27;100.00;-18572.03;5008759;28;20045;-79
2023/08/27 09:16:30;;;;;;;8.13;3.35;;;;;;;20.20;100.00;-18570.28;5007942;28;20475;-79
2023/08/27 09:18:56;;;;;;;6.15;3.20;;;;;;;20.15;100.00;-18568.91;5008436;28;20112;-79
2023/08/27 09:21:21;;;;;;;6.35;2.35;;;;;;;20.27;100.00;-18572.16;5008104;28;20044;-79
2023/08/27 09:23:47;;;;;;;4.55;2.30;;;;;;;20.21;100.00;-18570.41;5009519;28;20128;-79
2023/08/27 09:26:14;;;;;;;4.75;2.10;;;;;;;20.35;100.00;-18574.22;5001569;28;20034;-79
2023/08/27 09:28:40;;;;;;;5.47;2.60;;;;;;;20.35;100.00;-18574.22;5007611;28;20048;-79
2023/08/27 09:31:09;;;;;;;3.85;1.95;;;;;;;20.39;100.00;-18575.16;5000650;28;20073;-79
2023/08/27 09:33:43;;;;;;;3.80;2.03;;;;;;;20.33;100.00;-18573.53;5004407;28;20075;-79
2023/08/27 09:36:09;;;;;;;6.93;2.58;;;;;;;20.33;100.00;-18573.66;5009621;28;20038;-79
2023/08/27 09:38:35;;;;;;;8.63;2.25;;;;;;;20.57;100.00;-18579.94;5005565;28;20401;-79
2023/08/27 09:41:14;;;;;;;5.07;1.65;;;;;;;20.66;100.00;-18582.53;5009370;28;20038;-79
2023/08/27 09:43:40;;;;;;;5.88;1.92;;;;;;;20.66;100.00;-18582.38;5005684;28;20041;-79
2023/08/27 09:46:10;;;;;;;7.13;2.20;;;;;;;20.85;100.00;-18587.56;5009323;28;20030;-79
2023/08/27 09:48:35;;;;;;;4.25;1.95;;;;;;;21.06;100.00;-18593.13;5008061;28;20092;-79
2023/08/27 09:51:07;;;;;;;4.18;1.70;;;;;;;21.24;100.00;-18597.88;5008399;28;20117;-79
2023/08/27 09:53:32;;;;;;;4.45;1.70;;;;;;;21.28;100.00;-18598.84;5007872;28;20073;-79
2023/08/27 09:55:58;;;;;;;5.88;2.05;;;;;;;20.96;100.00;-18590.53;5007660;28;20073;-79
2023/08/27 09:58:27;;;;;;;2.95;1.50;;;;;;;21.31;100.00;-18599.78;5005572;28;20130;-79
2023/08/27 10:00:59;;;;;;;4.05;2.03;;;;;;;21.58;100.00;-18607.00;5008065;28;20058;-79
2023/08/27 10:03:28;;;;;;;3.60;1.52;;;;;;;21.81;100.00;-18613.13;5000869;28;20046;-79
2023/08/27 10:05:54;;;;;;;;;;;;;;;22.09;100.00;-18620.44;5006118;28;20052;-79
2023/08/27 10:08:20;;;;;;;4.07;1.50;;;;;;;21.99;100.00;-18617.88;5007331;28;20004;-79
2023/08/27 10:10:46;;;;;;;4.35;1.27;;;;;;;21.91;100.00;-18615.56;5008491;28;20045;-79
2023/08/27 10:13:14;;;;;;;3.45;1.40;;;;;;;22.30;100.00;-18626.16;4990830;28;20042;-79
2023/08/27 10:15:40;;;;;;;3.17;1.25;;;;;;;22.45;100.00;-18629.97;4999526;28;20595;-79
2023/08/27 10:18:13;;;;;;;4.78;1.70;;;;;;;22.17;100.00;-18622.50;5008227;28;20114;-79
2023/08/27 10:20:41;;;;;;;3.25;1.02;;;;;;;22.36;100.00;-18627.53;4990258;28;20038;-79
2023/08/27 10:23:08;;;;;;;3.45;1.35;;;;;;;22.74;100.00;-18637.84;5004260;28;20144;-79
2023/08/27 10:25:34;;;;;;;6.75;1.60;;;;;;;22.85;100.00;-18640.56;5002499;28;20048;-79
2023/08/27 10:28:01;;;;;;;4.45;1.10;;;;;;;22.67;100.00;-18635.78;5003979;28;20045;-79
2023/08/27 10:30:27;;;;;;;4.03;1.38;;;;;;;22.81;100.00;-18639.47;5008822;28;20137;-79
2023/08/27 10:32:54;;;;;;;4.32;1.05;;;;;;;22.71;97.13;-18636.88;5008593;28;20046;-79
2023/08/27 10:35:19;;;;;;;2.25;1.08;;;;;;;22.78;91.57;-18638.78;5006015;28;20050;-80
2023/08/27 10:37:49;;;;;;;2.53;1.05;;;;;;;22.83;94.20;-18640.00;5006719;28;20128;-79
2023/08/27 10:40:16;;;;;;;3.20;1.23;;;;;;;22.64;88.63;-18634.97;4985095;28;20045;-79
2023/08/27 10:42:41;;;;;;;4.15;0.90;;;;;;;22.77;90.84;-18638.50;5006847;28;20108;-79
2023/08/27 10:45:15;;;;;;;3.35;1.10;;;;;;;22.89;86.78;-18641.78;5004213;28;20045;-80
2023/08/27 10:47:41;;;;;;;2.40;1.05;;;;;;;22.89;86.20;-18641.63;4990861;28;20132;-79
2023/08/27 10:50:06;;;;;;;5.05;1.20;;;;;;;22.78;86.15;-18638.78;5003712;28;20102;-79
2023/08/27 10:52:49;;;;;;;3.78;1.05;;;;;;;22.72;91.08;-18637.28;5006848;28;20163;-79
2023/08/27 10:55:14;;;;;;;3.33;1.10;;;;;;;22.67;94.01;-18635.78;5010908;28;20111;-79
2023/08/27 10:57:39;;;;;;;3.72;1.20;;;;;;;22.48;93.56;-18630.91;5008500;28;20025;-79
2023/08/27 11:00:10;;;;;;;2.72;1.17;;;;;;;22.32;94.63;-18626.44;4986035;28;20045;-77
2023/08/27 11:02:58;;;;;;;3.08;1.10;;;;;;;22.18;95.06;-18622.91;5007776;28;20041;-77
2023/08/27 11:05:30;;;;;;;4.00;1.30;;;;;;;22.31;93.74;-18626.28;5004200;28;20045;-79
2023/08/27 11:07:59;;;;;;;3.80;1.25;;;;;;;22.20;93.64;-18623.31;5007012;28;20044;-79
2023/08/27 11:10:31;;;;;;;;;;;;;;;22.59;84.24;-18633.75;5008087;28;20053;-79